createdAt,value
2018-07-11T00:00:43.633Z,63.18
2018-07-11T00:01:43.448Z,63.18
2018-07-11T00:02:43.425Z,63.27
2018-07-11T00:03:43.392Z,63.46
2018-07-11T00:04:43.357Z,63.92
2018-07-11T00:05:43.336Z,64.11
2018-07-11T00:06:43.309Z,63.92
2018-07-11T00:07:43.288Z,64.31
2018-07-11T00:08:43.245Z,64.50
2018-07-11T00:09:43.238Z,64.85
2018-07-11T00:10:43.196Z,64.95
2018-07-11T00:11:43.159Z,64.98
2018-07-11T00:12:43.130Z,64.79
2018-07-11T00:13:43.096Z,65.08
2018-07-11T00:14:43.084Z,64.95
2018-07-11T00:15:43.039Z,65.34
2018-07-11T00:16:43.012Z,65.05
2018-07-11T00:17:43.212Z,65.14
2018-07-11T00:18:42.951Z,65.05
2018-07-11T00:19:42.991Z,65.05
2018-07-11T00:20:42.918Z,65.14
2018-07-11T00:21:43.055Z,65.05
2018-07-11T00:22:42.836Z,64.76
2018-07-11T00:23:42.905Z,65.24
2018-07-11T00:24:42.788Z,64.85
2018-07-11T00:25:42.761Z,65.24
2018-07-11T00:26:42.715Z,65.24
2018-07-11T00:27:42.833Z,65.34
2018-07-11T00:28:42.659Z,65.72
2018-07-11T00:29:42.660Z,65.82
2018-07-11T00:30:42.604Z,66.01
2018-07-11T00:31:42.572Z,66.11
2018-07-11T00:32:42.535Z,66.30
2018-07-11T00:33:42.499Z,66.27
2018-07-11T00:34:42.511Z,66.40
2018-07-11T00:35:42.446Z,65.98
2018-07-11T00:36:42.447Z,66.36
2018-07-11T00:37:42.389Z,66.46
2018-07-11T00:39:42.337Z,66.94
2018-07-11T00:40:42.305Z,66.75
2018-07-11T00:41:42.313Z,66.85
2018-07-11T00:42:42.249Z,66.75
2018-07-11T00:43:42.205Z,67.04
2018-07-11T00:44:42.180Z,67.04
2018-07-11T00:45:42.160Z,66.56
2018-07-11T00:46:42.129Z,66.66
2018-07-11T00:47:42.099Z,66.75
2018-07-11T00:48:42.085Z,66.36
2018-07-11T00:49:42.046Z,66.56
2018-07-11T00:50:42.015Z,66.94
2018-07-11T00:51:41.964Z,66.75
2018-07-11T00:52:41.992Z,66.75
2018-07-11T00:53:42.091Z,66.85
2018-07-11T00:54:41.916Z,66.94
2018-07-11T00:55:41.906Z,67.33
2018-07-11T00:56:41.873Z,67.33
2018-07-11T00:57:41.786Z,67.33
2018-07-11T00:58:41.781Z,66.75
2018-07-11T00:59:41.928Z,66.85
2018-07-11T01:00:41.698Z,67.04
2018-07-11T01:01:41.778Z,67.33
2018-07-11T01:02:41.650Z,67.01
2018-07-11T01:03:41.671Z,67.40
2018-07-11T01:04:41.605Z,67.11
2018-07-11T01:05:41.702Z,67.30
2018-07-11T01:06:41.515Z,67.30
2018-07-11T01:07:41.492Z,68.07
2018-07-11T01:08:41.461Z,67.85
2018-07-11T01:09:41.433Z,68.23
2018-07-11T01:10:41.401Z,68.91
2018-07-11T01:11:41.369Z,68.62
2018-07-11T01:12:41.339Z,68.62
2018-07-11T01:13:41.302Z,69.10
2018-07-11T01:14:41.315Z,69.20
2018-07-11T01:15:41.277Z,69.13
2018-07-11T01:16:41.225Z,68.71
2018-07-11T01:17:41.194Z,68.71
2018-07-11T01:18:41.155Z,68.91
2018-07-11T01:19:41.140Z,69.49
2018-07-11T01:20:41.104Z,69.00
2018-07-11T01:21:41.094Z,69.29
2018-07-11T01:22:41.044Z,69.39
2018-07-11T01:23:41.025Z,69.39
2018-07-11T01:24:41.021Z,69.49
2018-07-11T01:25:41.025Z,69.20
2018-07-11T01:26:41.165Z,69.68
2018-07-11T01:27:40.885Z,69.20
2018-07-11T01:28:40.860Z,69.68
2018-07-11T01:29:40.826Z,69.58
2018-07-11T01:30:40.790Z,69.58
2018-07-11T01:31:40.771Z,70.06
2018-07-11T01:32:40.922Z,69.58
2018-07-11T01:33:40.712Z,69.58
2018-07-11T01:34:40.679Z,69.29
2018-07-11T01:35:40.644Z,69.78
2018-07-11T01:36:40.625Z,69.87
2018-07-11T01:37:40.584Z,69.78
2018-07-11T01:38:40.561Z,70.16
2018-07-11T01:39:40.547Z,70.26
2018-07-11T01:40:40.487Z,70.16
2018-07-11T01:41:40.482Z,70.06
2018-07-11T01:42:40.429Z,70.16
2018-07-11T01:43:40.601Z,70.42
2018-07-11T01:44:40.387Z,70.80
2018-07-11T01:45:40.350Z,71.09
2018-07-11T01:46:40.313Z,70.42
2018-07-11T01:47:40.281Z,70.80
2018-07-11T01:48:40.246Z,70.42
2018-07-11T01:49:40.232Z,71.09
2018-07-11T01:50:40.195Z,71.00
2018-07-11T01:51:40.163Z,71.09
2018-07-11T01:52:40.144Z,71.19
2018-07-11T01:53:40.091Z,70.70
2018-07-11T01:54:40.095Z,71.12
2018-07-11T01:55:40.036Z,70.16
2018-07-11T01:56:40.040Z,70.22
2018-07-11T01:57:39.992Z,70.51
2018-07-11T01:58:39.949Z,70.51
2018-07-11T01:59:39.925Z,71.00
2018-07-11T02:00:39.877Z,71.28
2018-07-11T02:01:39.883Z,71.19
2018-07-11T02:02:39.828Z,71.09
2018-07-11T02:03:39.789Z,71.38
2018-07-11T02:04:39.763Z,71.67
2018-07-11T02:05:39.738Z,70.90
2018-07-11T02:06:39.715Z,71.58
2018-07-11T02:07:39.659Z,71.34
2018-07-11T02:08:39.649Z,71.77
2018-07-11T02:09:39.624Z,71.86
2018-07-11T02:10:39.759Z,71.77
2018-07-11T02:11:39.549Z,71.58
2018-07-11T02:12:39.516Z,71.67
2018-07-11T02:13:39.494Z,71.77
2018-07-11T02:14:39.480Z,71.77
2018-07-11T02:15:39.470Z,71.64
2018-07-11T02:16:39.397Z,72.02
2018-07-11T02:17:39.363Z,71.73
2018-07-11T02:18:39.330Z,71.92
2018-07-11T02:19:39.305Z,71.73
2018-07-11T02:20:39.270Z,72.41
2018-07-11T02:21:39.420Z,73.18
2018-07-11T02:22:39.210Z,73.14
2018-07-11T02:23:39.178Z,73.05
2018-07-11T02:24:39.162Z,72.95
2018-07-11T02:25:39.115Z,73.72
2018-07-11T02:26:39.087Z,73.43
2018-07-11T02:27:39.052Z,73.24
2018-07-11T02:28:39.021Z,72.85
2018-07-11T02:29:38.990Z,73.24
2018-07-11T02:30:38.965Z,73.43
2018-07-11T02:31:39.086Z,73.47
2018-07-11T02:32:38.895Z,73.43
2018-07-11T02:33:38.876Z,73.57
2018-07-11T02:34:38.845Z,73.62
2018-07-11T02:35:38.815Z,73.62
2018-07-11T02:36:38.794Z,73.62
2018-07-11T02:37:38.753Z,73.37
2018-07-11T02:38:38.723Z,73.85
2018-07-11T02:39:38.688Z,73.66
2018-07-11T02:40:38.665Z,73.43
2018-07-11T02:41:38.622Z,73.75
2018-07-11T02:42:38.604Z,73.24
2018-07-11T02:43:38.580Z,73.18
2018-07-11T02:44:38.531Z,73.43
2018-07-11T02:45:38.505Z,73.62
2018-07-11T02:46:38.475Z,73.82
2018-07-11T02:47:38.447Z,73.91
2018-07-11T02:48:38.433Z,74.10
2018-07-11T02:49:38.388Z,74.01
2018-07-11T02:50:38.346Z,73.91
2018-07-11T02:51:38.318Z,74.10
2018-07-11T02:52:38.283Z,73.82
2018-07-11T02:53:38.354Z,74.10
2018-07-11T02:54:38.222Z,74.10
2018-07-11T02:55:38.193Z,74.30
2018-07-11T02:56:38.172Z,74.30
2018-07-11T02:57:38.128Z,73.62
2018-07-11T02:58:38.106Z,74.30
2018-07-11T02:59:38.067Z,74.10
2018-07-11T03:00:38.037Z,74.10
2018-07-11T03:01:38.018Z,74.01
2018-07-11T03:02:37.982Z,74.20
2018-07-11T03:03:37.948Z,73.62
2018-07-11T03:04:38.259Z,73.91
2018-07-11T03:05:37.885Z,74.49
2018-07-11T03:06:37.856Z,74.40
2018-07-11T03:07:37.823Z,74.01
2018-07-11T03:08:37.805Z,74.20
2018-07-11T03:09:37.766Z,73.91
2018-07-11T03:10:37.936Z,74.49
2018-07-11T03:11:37.711Z,74.01
2018-07-11T03:12:37.670Z,74.49
2018-07-11T03:13:37.638Z,74.65
2018-07-11T03:14:37.619Z,74.74
2018-07-11T03:15:37.598Z,74.84
2018-07-11T03:16:37.553Z,75.03
2018-07-11T03:17:37.510Z,75.23
2018-07-11T03:18:37.483Z,75.13
2018-07-11T03:19:37.458Z,74.65
2018-07-11T03:20:37.424Z,74.65
2018-07-11T03:21:37.386Z,74.65
2018-07-11T03:22:37.365Z,74.20
2018-07-11T03:23:37.333Z,74.16
2018-07-11T03:24:37.304Z,74.07
2018-07-11T03:25:37.275Z,74.10
2018-07-11T03:26:37.234Z,74.01
2018-07-11T03:27:37.301Z,74.01
2018-07-11T03:28:37.174Z,73.78
2018-07-11T03:29:37.148Z,73.97
2018-07-11T03:30:37.107Z,74.45
2018-07-11T03:31:37.080Z,74.26
2018-07-11T03:32:37.141Z,74.45
2018-07-11T03:33:37.024Z,75.23
2018-07-11T03:34:36.986Z,75.32
2018-07-11T03:35:36.951Z,75.61
2018-07-11T03:36:37.070Z,75.71
2018-07-11T03:37:36.937Z,75.71
2018-07-11T03:38:36.872Z,75.80
2018-07-11T03:39:36.836Z,75.23
2018-07-11T03:40:36.806Z,74.74
2018-07-11T03:41:36.769Z,74.74
2018-07-11T03:42:36.745Z,74.65
2018-07-11T03:43:36.706Z,74.26
2018-07-11T03:44:36.688Z,74.16
2018-07-11T03:45:36.661Z,74.36
2018-07-11T03:46:36.642Z,74.65
2018-07-11T03:47:36.587Z,74.26
2018-07-11T03:48:36.553Z,74.61
2018-07-11T03:49:36.521Z,74.84
2018-07-11T03:50:36.494Z,74.90
2018-07-11T03:51:36.468Z,74.41
2018-07-11T03:52:36.426Z,74.41
2018-07-11T03:53:36.754Z,75.09
2018-07-11T03:54:36.367Z,75.57
2018-07-11T03:55:36.341Z,75.28
2018-07-11T03:56:36.310Z,75.38
2018-07-11T03:57:36.273Z,75.38
2018-07-11T03:58:36.240Z,75.09
2018-07-11T03:59:36.220Z,74.71
2018-07-11T04:00:36.176Z,75.28
2018-07-11T04:01:36.149Z,75.19
2018-07-11T04:02:36.116Z,75.28
2018-07-11T04:03:36.086Z,74.90
2018-07-11T04:04:36.253Z,74.61
2018-07-11T04:05:36.023Z,74.51
2018-07-11T04:06:35.996Z,75.09
2018-07-11T04:07:35.963Z,75.19
2018-07-11T04:08:35.935Z,75.28
2018-07-11T04:09:35.903Z,75.28
2018-07-11T04:10:36.231Z,75.57
2018-07-11T04:11:35.838Z,75.96
2018-07-11T04:12:35.809Z,76.53
2018-07-11T04:13:35.786Z,75.76
2018-07-11T04:14:35.754Z,75.76
2018-07-11T04:15:35.725Z,75.96
2018-07-11T04:16:35.839Z,75.96
2018-07-11T04:17:35.647Z,76.15
2018-07-11T04:18:35.621Z,75.48
2018-07-11T04:19:35.587Z,75.96
2018-07-11T04:20:35.626Z,76.44
2018-07-11T04:21:35.525Z,76.34
2018-07-11T04:22:35.491Z,76.73
2018-07-11T04:23:35.467Z,76.59
2018-07-11T04:24:35.433Z,76.34
2018-07-11T04:25:35.409Z,77.01
2018-07-11T04:26:35.371Z,76.88
2018-07-11T04:27:35.340Z,76.78
2018-07-11T04:28:35.316Z,76.59
2018-07-11T04:29:35.274Z,76.69
2018-07-11T04:30:35.257Z,76.69
2018-07-11T04:31:35.214Z,76.59
2018-07-11T04:32:35.188Z,76.88
2018-07-11T04:33:35.151Z,76.78
2018-07-11T04:34:35.129Z,76.59
2018-07-11T04:35:35.116Z,77.17
2018-07-11T04:36:35.056Z,76.69
2018-07-11T04:37:35.129Z,76.40
2018-07-11T04:38:34.993Z,77.08
2018-07-11T04:39:34.960Z,76.78
2018-07-11T04:40:34.931Z,76.21
2018-07-11T04:41:34.897Z,75.92
2018-07-11T04:42:34.919Z,75.92
2018-07-11T04:43:35.187Z,75.82
2018-07-11T04:44:34.800Z,76.01
2018-07-11T04:45:34.772Z,75.92
2018-07-11T04:46:34.755Z,76.01
2018-07-11T04:47:34.713Z,76.31
2018-07-11T04:48:34.683Z,75.73
2018-07-11T04:49:34.646Z,76.01
2018-07-11T04:50:34.616Z,76.34
2018-07-11T04:51:34.583Z,76.34
2018-07-11T04:52:34.611Z,75.67
2018-07-11T04:53:34.518Z,75.15
2018-07-11T04:54:34.495Z,75.63
2018-07-11T04:55:34.590Z,75.34
2018-07-11T04:56:34.438Z,75.44
2018-07-11T04:57:34.394Z,76.11
2018-07-11T04:58:34.364Z,76.59
2018-07-11T04:59:34.336Z,76.69
2018-07-11T05:00:34.312Z,77.65
2018-07-11T05:01:34.276Z,77.46
2018-07-11T05:02:34.235Z,77.26
2018-07-11T05:03:34.216Z,76.78
2018-07-11T05:04:34.196Z,76.31
2018-07-11T05:05:34.168Z,76.88
2018-07-11T05:06:34.113Z,76.50
2018-07-11T05:07:34.108Z,76.59
2018-07-11T05:08:34.050Z,77.33
2018-07-11T05:09:34.021Z,77.13
2018-07-11T05:10:33.985Z,77.71
2018-07-11T05:11:33.954Z,77.90
2018-07-11T05:12:33.941Z,78.19
2018-07-11T05:13:33.893Z,77.71
2018-07-11T05:14:33.859Z,78.09
2018-07-11T05:15:33.828Z,78.00
2018-07-11T05:16:33.796Z,78.38
2018-07-11T05:17:33.767Z,78.67
2018-07-11T05:18:33.743Z,78.58
2018-07-11T05:19:33.703Z,78.00
2018-07-11T05:20:33.672Z,78.09
2018-07-11T05:21:33.646Z,77.33
2018-07-11T05:22:33.606Z,77.23
2018-07-11T05:23:33.578Z,77.42
2018-07-11T05:24:33.546Z,77.33
2018-07-11T05:25:33.521Z,77.33
2018-07-11T05:26:33.487Z,77.46
2018-07-11T05:27:33.468Z,77.17
2018-07-11T05:28:33.418Z,77.17
2018-07-11T05:29:33.386Z,76.11
2018-07-11T05:30:33.354Z,75.92
2018-07-11T05:31:33.327Z,76.21
2018-07-11T05:32:33.293Z,76.31
2018-07-11T05:33:33.262Z,76.50
2018-07-11T05:34:33.231Z,76.31
2018-07-11T05:35:33.195Z,75.82
2018-07-11T05:36:33.167Z,76.17
2018-07-11T05:37:33.137Z,75.88
2018-07-11T05:38:33.103Z,76.26
2018-07-11T05:39:33.076Z,76.26
2018-07-11T05:40:33.044Z,76.07
2018-07-11T05:41:33.109Z,75.79
2018-07-11T05:42:33.048Z,75.92
2018-07-11T05:43:32.943Z,76.31
2018-07-11T05:44:32.914Z,76.17
2018-07-11T05:45:32.878Z,76.36
2018-07-11T05:46:32.850Z,76.56
2018-07-11T05:47:32.816Z,76.36
2018-07-11T05:48:32.783Z,76.17
2018-07-11T05:49:32.770Z,76.75
2018-07-11T05:50:32.717Z,76.84
2018-07-11T05:51:32.693Z,76.56
2018-07-11T05:52:32.656Z,76.56
2018-07-11T05:53:32.624Z,76.65
2018-07-11T05:54:32.598Z,76.56
2018-07-11T05:55:32.565Z,76.26
2018-07-11T05:56:32.568Z,76.75
2018-07-11T05:57:32.698Z,76.56
2018-07-11T05:58:32.467Z,76.75
2018-07-11T05:59:32.430Z,76.26
2018-07-11T06:00:32.434Z,76.36
2018-07-11T06:01:32.371Z,76.46
2018-07-11T06:02:32.359Z,77.04
2018-07-11T06:03:32.309Z,77.23
2018-07-11T06:04:32.278Z,77.13
2018-07-11T06:05:32.356Z,76.61
2018-07-11T06:06:32.215Z,77.09
2018-07-11T06:07:32.185Z,77.13
2018-07-11T06:08:32.248Z,76.90
2018-07-11T06:09:32.124Z,77.48
2018-07-11T06:10:32.084Z,77.33
2018-07-11T06:11:32.051Z,76.65
2018-07-11T06:12:32.023Z,77.19
2018-07-11T06:13:32.031Z,77.29
2018-07-11T06:14:31.959Z,77.67
2018-07-11T06:15:31.945Z,77.29
2018-07-11T06:16:31.898Z,77.29
2018-07-11T06:17:31.870Z,77.48
2018-07-11T06:18:31.835Z,77.48
2018-07-11T06:19:31.806Z,77.00
2018-07-11T06:20:31.769Z,77.38
2018-07-11T06:21:31.734Z,77.58
2018-07-11T06:22:31.704Z,78.15
2018-07-11T06:23:31.668Z,78.15
2018-07-11T06:24:31.637Z,77.96
2018-07-11T06:25:31.604Z,77.76
2018-07-11T06:26:31.587Z,77.76
2018-07-11T06:27:31.544Z,78.15
2018-07-11T06:28:31.509Z,78.06
2018-07-11T06:29:31.679Z,78.06
2018-07-11T06:30:31.448Z,78.15
2018-07-11T06:31:31.415Z,78.25
2018-07-11T06:32:31.386Z,78.25
2018-07-11T06:33:31.386Z,77.96
2018-07-11T06:34:31.317Z,78.25
2018-07-11T06:35:31.286Z,77.96
2018-07-11T06:36:31.253Z,77.67
2018-07-11T06:37:31.244Z,77.86
2018-07-11T06:38:31.193Z,77.67
2018-07-11T06:39:31.164Z,78.53
2018-07-11T06:40:31.277Z,78.34
2018-07-11T06:41:31.095Z,78.25
2018-07-11T06:42:31.064Z,78.83
2018-07-11T06:43:31.034Z,78.83
2018-07-11T06:44:31.015Z,78.59
2018-07-11T06:45:30.971Z,78.53
2018-07-11T06:46:31.144Z,78.98
2018-07-11T06:47:30.905Z,78.92
2018-07-11T06:48:30.874Z,78.78
2018-07-11T06:49:30.867Z,78.50
2018-07-11T06:50:30.854Z,78.69
2018-07-11T06:51:30.783Z,79.07
2018-07-11T06:52:30.745Z,79.27
2018-07-11T06:53:30.715Z,79.07
2018-07-11T06:54:30.678Z,78.98
2018-07-11T06:55:30.648Z,78.98
2018-07-11T06:56:30.653Z,79.46
2018-07-11T06:57:30.742Z,79.27
2018-07-11T06:58:30.548Z,79.46
2018-07-11T06:59:30.519Z,79.27
2018-07-11T07:00:30.486Z,78.98
2018-07-11T07:01:30.473Z,78.88
2018-07-11T07:02:30.421Z,79.36
2018-07-11T07:03:30.461Z,79.27
2018-07-11T07:04:30.356Z,79.27
2018-07-11T07:05:30.330Z,79.17
2018-07-11T07:06:30.303Z,78.88
2018-07-11T07:07:30.260Z,79.07
2018-07-11T07:08:30.229Z,79.07
2018-07-11T07:09:30.198Z,79.07
2018-07-11T07:10:30.168Z,79.07
2018-07-11T07:11:30.133Z,78.98
2018-07-11T07:12:30.109Z,79.07
2018-07-11T07:13:30.373Z,78.50
2018-07-11T07:14:30.036Z,78.78
2018-07-11T07:15:30.003Z,78.50
2018-07-11T07:16:30.000Z,78.21
2018-07-11T07:17:29.939Z,78.02
2018-07-11T07:18:29.910Z,78.11
2018-07-11T07:19:30.078Z,78.59
2018-07-11T07:20:29.850Z,78.30
2018-07-11T07:21:29.814Z,77.92
2018-07-11T07:22:29.799Z,77.73
2018-07-11T07:23:29.751Z,78.02
2018-07-11T07:24:29.714Z,77.92
2018-07-11T07:25:29.683Z,77.92
2018-07-11T07:26:29.650Z,77.63
2018-07-11T07:27:29.619Z,78.50
2018-07-11T07:28:29.591Z,78.59
2018-07-11T07:29:29.559Z,78.59
2018-07-11T07:30:29.521Z,78.40
2018-07-11T07:31:29.505Z,77.83
2018-07-11T07:32:29.463Z,78.30
2018-07-11T07:33:29.456Z,78.02
2018-07-11T07:34:29.392Z,77.83
2018-07-11T07:35:29.365Z,77.53
2018-07-11T07:36:29.330Z,77.06
2018-07-11T07:37:29.302Z,77.25
2018-07-11T07:38:29.266Z,77.25
2018-07-11T07:39:29.233Z,77.25
2018-07-11T07:40:29.206Z,77.44
2018-07-11T07:41:29.171Z,77.06
2018-07-11T07:42:29.158Z,76.96
2018-07-11T07:43:29.103Z,76.86
2018-07-11T07:44:29.073Z,77.06
2018-07-11T07:45:29.042Z,77.06
2018-07-11T07:46:29.021Z,77.44
2018-07-11T07:47:28.975Z,77.83
2018-07-11T07:48:28.952Z,77.53
2018-07-11T07:49:28.913Z,77.53
2018-07-11T07:50:28.880Z,77.73
2018-07-11T07:51:28.844Z,78.21
2018-07-11T07:52:28.817Z,77.78
2018-07-11T07:53:28.786Z,78.21
2018-07-11T07:54:28.756Z,77.78
2018-07-11T07:55:28.721Z,77.88
2018-07-11T07:56:28.686Z,77.31
2018-07-11T07:57:28.656Z,77.40
2018-07-11T07:58:28.645Z,77.25
2018-07-11T07:59:28.615Z,77.01
2018-07-11T08:00:28.560Z,77.15
2018-07-11T08:01:28.727Z,77.34
2018-07-11T08:02:28.491Z,77.40
2018-07-11T08:03:28.465Z,77.63
2018-07-11T08:04:28.432Z,77.25
2018-07-11T08:05:28.399Z,77.44
2018-07-11T08:06:28.369Z,77.34
2018-07-11T08:07:28.337Z,77.63
2018-07-11T08:08:28.301Z,77.44
2018-07-11T08:09:28.264Z,77.44
2018-07-11T08:10:28.244Z,77.63
2018-07-11T08:11:28.205Z,77.63
2018-07-11T08:12:28.219Z,77.06
2018-07-11T08:13:28.141Z,76.96
2018-07-11T08:14:28.109Z,77.15
2018-07-11T08:15:28.083Z,77.44
2018-07-11T08:16:28.043Z,77.06
2018-07-11T08:17:28.007Z,76.96
2018-07-11T08:18:27.977Z,77.25
2018-07-11T08:19:27.946Z,77.25
2018-07-11T08:20:27.910Z,77.34
2018-07-11T08:21:27.949Z,77.44
2018-07-11T08:22:27.857Z,76.61
2018-07-11T08:23:27.845Z,76.71
2018-07-11T08:24:27.783Z,76.96
2018-07-11T08:25:27.752Z,76.48
2018-07-11T08:26:27.726Z,76.57
2018-07-11T08:27:27.715Z,77.09
2018-07-11T08:28:27.658Z,77.38
2018-07-11T08:29:27.636Z,77.29
2018-07-11T08:30:27.588Z,77.58
2018-07-11T08:31:27.563Z,77.58
2018-07-11T08:32:27.532Z,78.25
2018-07-11T08:33:27.799Z,77.96
2018-07-11T08:34:27.457Z,78.53
2018-07-11T08:35:27.435Z,78.53
2018-07-11T08:36:27.392Z,78.63
2018-07-11T08:37:27.365Z,78.59
2018-07-11T08:38:27.327Z,77.63
2018-07-11T08:39:27.296Z,77.67
2018-07-11T08:40:27.266Z,78.50
2018-07-11T08:41:27.234Z,78.59
2018-07-11T08:42:27.201Z,78.59
2018-07-11T08:43:27.166Z,77.63
2018-07-11T08:44:27.339Z,78.06
2018-07-11T08:45:27.105Z,77.96
2018-07-11T08:46:27.068Z,78.02
2018-07-11T08:47:27.045Z,77.58
2018-07-11T08:48:27.012Z,77.76
2018-07-11T08:49:27.000Z,77.48
2018-07-11T08:50:27.140Z,78.02
2018-07-11T08:51:26.908Z,77.44
2018-07-11T08:52:26.876Z,77.73
2018-07-11T08:53:26.901Z,78.40
2018-07-11T08:54:26.828Z,78.40
2018-07-11T08:55:26.775Z,78.50
2018-07-11T08:56:26.754Z,78.30
2018-07-11T08:57:26.721Z,78.50
2018-07-11T08:58:26.679Z,78.50
2018-07-11T08:59:26.652Z,78.50
2018-07-11T09:00:26.614Z,78.50
2018-07-11T09:01:26.682Z,78.50
2018-07-11T09:02:26.548Z,78.02
2018-07-11T09:03:26.553Z,77.73
2018-07-11T09:04:26.487Z,78.02
2018-07-11T09:05:26.453Z,77.63
2018-07-11T09:06:26.426Z,78.59
2018-07-11T09:07:26.392Z,78.69
2018-07-11T09:08:26.362Z,78.45
2018-07-11T09:09:26.324Z,77.59
2018-07-11T09:10:26.321Z,77.88
2018-07-11T09:11:26.316Z,77.92
2018-07-11T09:12:26.229Z,77.78
2018-07-11T09:13:26.193Z,77.63
2018-07-11T09:14:26.182Z,77.25
2018-07-11T09:15:26.138Z,77.34
2018-07-11T09:16:26.098Z,77.44
2018-07-11T09:17:26.065Z,77.44
2018-07-11T09:18:26.030Z,77.06
2018-07-11T09:19:26.001Z,77.25
2018-07-11T09:20:25.973Z,77.15
2018-07-11T09:21:25.944Z,76.96
2018-07-11T09:22:25.908Z,77.06
2018-07-11T09:23:25.870Z,76.86
2018-07-11T09:24:25.923Z,76.96
2018-07-11T09:25:25.808Z,76.57
2018-07-11T09:26:25.769Z,76.57
2018-07-11T09:27:25.746Z,76.19
2018-07-11T09:28:25.711Z,77.15
2018-07-11T09:29:25.679Z,77.15
2018-07-11T09:30:25.654Z,77.01
2018-07-11T09:31:25.609Z,77.44
2018-07-11T09:32:25.583Z,77.06
2018-07-11T09:33:25.551Z,77.01
2018-07-11T09:34:25.519Z,77.59
2018-07-11T09:35:25.486Z,77.40
2018-07-11T09:36:25.453Z,77.11
2018-07-11T09:37:25.412Z,77.21
2018-07-11T09:38:25.383Z,77.40
2018-07-11T09:39:25.376Z,77.31
2018-07-11T09:40:25.316Z,77.40
2018-07-11T09:41:25.289Z,77.40
2018-07-11T09:42:25.253Z,77.11
2018-07-11T09:43:25.373Z,77.59
2018-07-11T09:44:25.205Z,77.69
2018-07-11T09:45:25.161Z,77.78
2018-07-11T09:46:25.121Z,77.50
2018-07-11T09:47:25.088Z,77.83
2018-07-11T09:48:25.056Z,77.59
2018-07-11T09:49:25.222Z,77.40
2018-07-11T09:50:24.990Z,78.17
2018-07-11T09:51:24.969Z,77.59
2018-07-11T09:52:24.924Z,78.08
2018-07-11T09:53:24.891Z,77.88
2018-07-11T09:54:24.859Z,78.65
2018-07-11T09:55:24.827Z,78.55
2018-07-11T09:56:24.796Z,78.84
2018-07-11T09:57:24.768Z,78.94
2018-07-11T09:58:24.727Z,79.22
2018-07-11T09:59:24.696Z,79.42
2018-07-11T10:00:24.671Z,79.52
2018-07-11T10:01:24.638Z,80.28
2018-07-11T10:02:24.607Z,80.38
2018-07-11T10:03:24.576Z,80.66
2018-07-11T10:04:24.543Z,80.73
2018-07-11T10:05:24.503Z,81.24
2018-07-11T10:06:24.469Z,81.30
2018-07-11T10:07:24.455Z,81.63
2018-07-11T10:08:24.409Z,81.72
2018-07-11T10:09:24.383Z,81.63
2018-07-11T10:10:24.343Z,81.63
2018-07-11T10:11:24.332Z,81.63
2018-07-11T10:12:24.394Z,81.63
2018-07-11T10:13:24.237Z,81.34
2018-07-11T10:14:24.215Z,81.43
2018-07-11T10:15:24.170Z,81.92
2018-07-11T10:16:24.518Z,82.10
2018-07-11T10:17:24.116Z,82.01
2018-07-11T10:18:24.084Z,82.20
2018-07-11T10:19:24.063Z,81.92
2018-07-11T10:20:24.015Z,81.92
2018-07-11T10:21:23.979Z,82.10
2018-07-11T10:22:24.048Z,81.82
2018-07-11T10:23:23.913Z,81.72
2018-07-11T10:24:23.881Z,81.82
2018-07-11T10:25:23.853Z,81.48
2018-07-11T10:26:23.816Z,81.57
2018-07-11T10:27:23.784Z,81.57
2018-07-11T10:28:23.753Z,81.38
2018-07-11T10:29:23.723Z,81.76
2018-07-11T10:30:23.690Z,82.24
2018-07-11T10:31:23.658Z,81.86
2018-07-11T10:32:23.624Z,81.28
2018-07-11T10:33:23.589Z,81.57
2018-07-11T10:34:23.562Z,81.67
2018-07-11T10:35:23.527Z,81.57
2018-07-11T10:36:23.493Z,81.28
2018-07-11T10:37:23.461Z,81.38
2018-07-11T10:38:23.536Z,80.61
2018-07-11T10:39:23.402Z,80.75
2018-07-11T10:40:23.364Z,80.84
2018-07-11T10:41:23.337Z,80.75
2018-07-11T10:42:23.298Z,80.40
2018-07-11T10:43:23.269Z,79.63
2018-07-11T10:44:23.237Z,78.36
2018-07-11T10:45:23.226Z,75.32
2018-07-11T10:46:23.180Z,72.95
2018-07-11T10:47:23.146Z,71.31
2018-07-11T10:48:23.111Z,69.71
2018-07-11T10:49:23.076Z,68.59
2018-07-11T10:50:23.052Z,66.85
2018-07-11T10:51:23.015Z,66.40
2018-07-11T10:52:22.982Z,65.14
2018-07-11T10:53:22.956Z,64.50
2018-07-11T10:54:22.923Z,63.34
2018-07-11T10:55:22.892Z,62.40
2018-07-11T10:56:22.868Z,61.44
2018-07-11T10:57:22.829Z,60.41
2018-07-11T10:58:22.807Z,59.53
2018-07-11T10:59:22.768Z,59.15
2018-07-11T11:00:35.964Z,58.80
2018-07-11T11:01:23.729Z,58.70
2018-07-11T11:02:22.820Z,58.53
2018-07-11T11:03:22.699Z,58.34
2018-07-11T11:04:22.857Z,57.66
2018-07-11T11:05:23.517Z,57.11
2018-07-11T11:06:22.748Z,56.92
2018-07-11T11:07:22.669Z,57.11
2018-07-11T11:08:22.694Z,56.43
2018-07-11T11:09:22.751Z,55.40
2018-07-11T11:11:22.568Z,55.68
2018-07-11T11:12:22.389Z,55.00
2018-07-11T11:13:22.359Z,54.84
2018-07-11T11:14:22.334Z,54.06
2018-07-11T11:15:22.305Z,54.16
2018-07-11T11:16:22.277Z,53.09
2018-07-11T11:17:22.258Z,52.25
2018-07-11T11:18:22.222Z,51.47
2018-07-11T11:19:22.192Z,51.47
2018-07-11T11:20:22.173Z,50.70
2018-07-11T11:21:22.138Z,49.95
2018-07-11T11:22:22.113Z,50.43
2018-07-11T11:23:22.088Z,50.53
2018-07-11T11:24:22.057Z,50.43
2018-07-11T11:25:22.027Z,50.24
2018-07-11T11:26:22.003Z,50.04
2018-07-11T11:27:21.974Z,49.37
2018-07-11T11:28:21.946Z,49.46
2018-07-11T11:29:21.929Z,49.46
2018-07-11T11:30:21.891Z,49.07
2018-07-11T11:31:21.871Z,49.07
2018-07-11T11:32:21.840Z,49.27
2018-07-11T11:33:21.812Z,48.78
2018-07-11T11:34:21.798Z,48.78
2018-07-11T11:35:21.775Z,48.03
2018-07-11T11:36:21.740Z,48.30
2018-07-11T11:37:21.707Z,48.13
2018-07-11T11:38:21.754Z,48.25
2018-07-11T11:39:21.664Z,47.38
2018-07-11T11:40:21.740Z,47.01
2018-07-11T11:41:21.603Z,46.62
2018-07-11T11:42:22.013Z,46.25
2018-07-11T11:43:21.762Z,45.50
2018-07-11T11:44:21.532Z,45.52
2018-07-11T11:45:21.510Z,44.65
2018-07-11T11:46:21.483Z,44.48
2018-07-11T11:47:21.455Z,43.60
2018-07-11T11:48:21.433Z,43.43
2018-07-11T11:49:21.443Z,42.96
2018-07-11T11:50:21.380Z,42.38
2018-07-11T11:51:21.357Z,42.55
2018-07-11T11:52:21.332Z,42.55
2018-07-11T11:53:21.307Z,42.18
2018-07-11T11:54:21.385Z,42.57
2018-07-11T11:55:21.261Z,41.99
2018-07-11T11:56:21.233Z,41.99
2018-07-11T11:57:21.214Z,42.38
2018-07-11T11:58:21.191Z,42.38
2018-07-11T11:59:21.171Z,42.30
2018-07-11T12:00:21.559Z,41.81
2018-07-11T12:01:21.115Z,41.54
2018-07-11T12:02:21.093Z,41.15
2018-07-11T12:03:21.070Z,40.48
2018-07-11T12:04:21.044Z,40.09
2018-07-11T12:05:21.044Z,39.90
2018-07-11T12:06:21.466Z,40.00
2018-07-11T12:07:21.096Z,40.21
2018-07-11T12:08:21.238Z,39.90
2018-07-11T12:09:21.082Z,39.80
2018-07-11T12:10:21.113Z,39.90
2018-07-11T12:11:21.073Z,40.29
2018-07-11T12:13:21.369Z,40.09
2018-07-11T12:14:21.051Z,40.86
2018-07-11T12:15:20.828Z,41.71
2018-07-11T12:16:21.226Z,43.35
2018-07-11T12:17:20.960Z,43.79
2018-07-11T12:18:21.018Z,45.42
2018-07-11T12:19:21.081Z,45.69
2018-07-11T12:20:20.865Z,46.94
2018-07-11T12:21:20.964Z,47.40
2018-07-11T12:22:20.823Z,47.59
2018-07-11T12:24:21.147Z,48.57
2018-07-11T12:25:20.701Z,48.85
2018-07-11T12:26:20.732Z,49.71
2018-07-11T12:27:20.726Z,50.36
2018-07-11T12:28:21.407Z,51.11
2018-07-11T12:29:21.446Z,52.37
2018-07-11T12:30:20.762Z,51.89
2018-07-11T12:31:20.709Z,52.08
2018-07-11T12:32:20.614Z,52.56
2018-07-11T12:33:20.568Z,52.83
2018-07-11T12:35:20.919Z,53.99
2018-07-11T12:36:20.566Z,54.86
2018-07-11T12:37:20.481Z,54.58
2018-07-11T12:38:20.407Z,54.96
2018-07-11T12:39:20.442Z,55.13
2018-07-11T12:40:20.489Z,55.62
2018-07-11T12:41:20.853Z,54.94
2018-07-11T12:42:20.512Z,54.64
2018-07-11T12:43:20.449Z,55.22
2018-07-11T12:44:20.477Z,54.35
2018-07-11T12:45:20.361Z,54.67
2018-07-11T12:46:20.411Z,54.55
2018-07-11T12:47:20.596Z,54.58
2018-07-11T12:48:20.492Z,54.96
2018-07-11T12:49:20.300Z,54.77
2018-07-11T12:50:20.286Z,54.19
2018-07-11T12:51:21.692Z,54.58
2018-07-11T12:52:20.136Z,54.16
2018-07-11T12:53:20.522Z,53.89
2018-07-11T12:54:20.081Z,54.28
2018-07-11T12:55:20.107Z,54.19
2018-07-11T12:56:20.127Z,54.38
2018-07-11T12:57:20.112Z,54.09